Pagina principale
METAR-TAF:

METAR-TAF

Aeroporti :

Aeroporto Internazionale di Khartum

Khartum, Sudan

latitudine: 15-36N, longitudine: 032-33E, altezza: 382 m

Osservazione

Il bollettino è stato emesso 12 minuti fa, alle 05:00 UTC
Vento 11 kt da nord
Temperature 24°C
Umidità 29%
Pressione 1012 hPa
Visibilità 10 km o più
nessuna nube inferiore a 1500 m e nessun cumulonembo

METAR: HSSS 210500Z 35011KT CAVOK 24/05 Q1012 NOSIG

Ora: 07:12 (05:12 UTC)

Previsione

Il bollettino è stato emesso 6 ore e 12 minuti fa, alle 23:00 UTC
Previsione valida dal 21 alle 00 UTC al 22 alle 06 UTC
Vento 8 kt da nord/nord-ovest con raffiche fino a 18 kt
Visibilità 10 km o più
nessuna nube inferiore a 1500 m e nessun cumulonembo
Temporaneamente
dal 21 alle 03 UTC al 21 alle 06 UTC
Visibilità: 6000 m

TAF: HSSS 202300Z 2100/2206 33008G18KT CAVOK TEMPO 2103/2106 6000 NSC

Osservazioni e previsioni meteorologiche di più di 4000 aeroporti (messaggi METAR e TAF).

Le stazioni disponibili sono rappresentate dai dischi gialli e rossi sulla carta.

Puntare il mouse per vedere il nome della stazione.

Clicca sopra per visualizzare le osservazioni e previsioni meteorologiche.

Per cambiare la mappa : fare clic sui pulsanti verdi con una croce nera per ingrandire, il pulsante verde con un trattino per diminuire, o sulla freccia verde per le mappe adiacenti.


METAR-TAF: